Corpus Christi, Texas
Current Conditions -  °F | °C
As of 10:51 AM on Friday 28 Nov 2014 (Local Time) from KCRP Reporting Station
Few Clouds Few Clouds  
Wind Chill: 22°   Ceiling: Unl
Heat Index: 22°   Visibility: 10mi
Dew Point: 13°   Wind: 15mph
Humidity: 57%   Direction: 200°SSW
Pressure: 30.31"   Gusts: NA
Location:  27.8°N, 97.4°W
Report Text: KCRP 281651Z 20013KT 10SM FEW028 22/13 A3031 RMK AO2 SLP263 T02170128 $
Loading
Personal Weather Stations






























Interactive Weather Map New forecast layout! Learn more

10-Day Weather Forecast

Advertisements
Track Severe Weather on mobile